sensor_id;sensor_type;location;lat;lon;timestamp;temperature;humidity
51739;DHT22;37815;52.692;6.226;2022-12-18T00:04:10;3.40;96.80
51739;DHT22;37815;52.692;6.226;2022-12-18T00:09:15;3.30;96.80
51739;DHT22;37815;52.692;6.226;2022-12-18T00:14:16;3.30;96.80
51739;DHT22;37815;52.692;6.226;2022-12-18T00:19:17;3.30;96.80
51739;DHT22;37815;52.692;6.226;2022-12-18T00:24:17;3.60;96.90
51739;DHT22;37815;52.692;6.226;2022-12-18T00:29:19;3.30;96.80
51739;DHT22;37815;52.692;6.226;2022-12-18T00:34:19;3.30;96.80
51739;DHT22;37815;52.692;6.226;2022-12-18T00:39:20;3.30;96.80
51739;DHT22;37815;52.692;6.226;2022-12-18T00:44:21;3.20;96.70
51739;DHT22;37815;52.692;6.226;2022-12-18T00:49:21;4.50;97.00
51739;DHT22;37815;52.692;6.226;2022-12-18T00:54:22;3.20;96.70
51739;DHT22;37815;52.692;6.226;2022-12-18T00:59:23;3.20;96.70
51739;DHT22;37815;52.692;6.226;2022-12-18T01:04:23;3.20;96.70
51739;DHT22;37815;52.692;6.226;2022-12-18T01:09:24;4.80;97.10
51739;DHT22;37815;52.692;6.226;2022-12-18T01:14:25;4.10;96.90
51739;DHT22;37815;52.692;6.226;2022-12-18T01:19:25;3.20;96.70
51739;DHT22;37815;52.692;6.226;2022-12-18T01:24:26;3.20;96.70
51739;DHT22;37815;52.692;6.226;2022-12-18T01:29:26;3.20;96.70
51739;DHT22;37815;52.692;6.226;2022-12-18T01:34:27;3.30;96.70
51739;DHT22;37815;52.692;6.226;2022-12-18T01:39:28;3.20;96.70
51739;DHT22;37815;52.692;6.226;2022-12-18T01:49:47;3.20;96.60
51739;DHT22;37815;52.692;6.226;2022-12-18T01:54:50;3.10;96.60
51739;DHT22;37815;52.692;6.226;2022-12-18T01:59:53;3.10;96.60
51739;DHT22;37815;52.692;6.226;2022-12-18T02:04:56;3.10;96.70
51739;DHT22;37815;52.692;6.226;2022-12-18T02:10:13;3.10;96.70
51739;DHT22;37815;52.692;6.226;2022-12-18T02:15:23;3.10;96.70
51739;DHT22;37815;52.692;6.226;2022-12-18T02:20:36;3.10;96.70
51739;DHT22;37815;52.692;6.226;2022-12-18T02:31:02;3.00;96.60
51739;DHT22;37815;52.692;6.226;2022-12-18T02:36:05;3.40;96.80
51739;DHT22;37815;52.692;6.226;2022-12-18T02:41:07;3.00;96.70
51739;DHT22;37815;52.692;6.226;2022-12-18T02:46:43;3.00;96.70
51739;DHT22;37815;52.692;6.226;2022-12-18T02:56:55;3.00;96.70
51739;DHT22;37815;52.692;6.226;2022-12-18T03:02:17;3.00;96.70
51739;DHT22;37815;52.692;6.226;2022-12-18T03:07:26;2.90;96.60
51739;DHT22;37815;52.692;6.226;2022-12-18T03:12:31;2.90;96.70
51739;DHT22;37815;52.692;6.226;2022-12-18T03:17:33;2.90;96.60
51739;DHT22;37815;52.692;6.226;2022-12-18T03:22:35;2.90;96.20
51739;DHT22;37815;52.692;6.226;2022-12-18T03:27:43;2.90;96.60
51739;DHT22;37815;52.692;6.226;2022-12-18T03:33:00;2.90;96.60
51739;DHT22;37815;52.692;6.226;2022-12-18T03:38:03;2.80;96.60
51739;DHT22;37815;52.692;6.226;2022-12-18T03:43:11;2.80;96.60
51739;DHT22;37815;52.692;6.226;2022-12-18T03:48:31;2.80;96.60
51739;DHT22;37815;52.692;6.226;2022-12-18T03:53:44;2.80;96.60
51739;DHT22;37815;52.692;6.226;2022-12-18T03:58:48;2.80;96.60
51739;DHT22;37815;52.692;6.226;2022-12-18T04:03:51;2.80;96.60
51739;DHT22;37815;52.692;6.226;2022-12-18T04:08:53;2.70;96.60
51739;DHT22;37815;52.692;6.226;2022-12-18T04:13:56;2.70;96.60
51739;DHT22;37815;52.692;6.226;2022-12-18T04:18:57;2.70;96.60
51739;DHT22;37815;52.692;6.226;2022-12-18T04:23:58;4.40;97.00
51739;DHT22;37815;52.692;6.226;2022-12-18T04:28:59;2.70;96.60
51739;DHT22;37815;52.692;6.226;2022-12-18T04:33:59;2.70;96.60
51739;DHT22;37815;52.692;6.226;2022-12-18T04:39:00;2.70;96.60
51739;DHT22;37815;52.692;6.226;2022-12-18T04:44:01;2.70;96.50
51739;DHT22;37815;52.692;6.226;2022-12-18T04:49:01;2.60;96.50
51739;DHT22;37815;52.692;6.226;2022-12-18T04:54:02;2.60;96.50
51739;DHT22;37815;52.692;6.226;2022-12-18T04:59:03;2.60;96.50
51739;DHT22;37815;52.692;6.226;2022-12-18T05:04:03;3.00;96.60
51739;DHT22;37815;52.692;6.226;2022-12-18T05:09:04;2.60;96.50
51739;DHT22;37815;52.692;6.226;2022-12-18T05:14:05;2.60;96.50
51739;DHT22;37815;52.692;6.226;2022-12-18T05:19:05;2.60;96.50
51739;DHT22;37815;52.692;6.226;2022-12-18T05:24:06;2.60;96.50
51739;DHT22;37815;52.692;6.226;2022-12-18T05:29:07;3.10;96.60
51739;DHT22;37815;52.692;6.226;2022-12-18T05:34:07;2.50;96.40
51739;DHT22;37815;52.692;6.226;2022-12-18T05:39:08;2.50;96.40
51739;DHT22;37815;52.692;6.226;2022-12-18T05:44:09;2.50;96.40
51739;DHT22;37815;52.692;6.226;2022-12-18T05:49:09;2.50;96.40
51739;DHT22;37815;52.692;6.226;2022-12-18T05:54:10;2.50;96.40
51739;DHT22;37815;52.692;6.226;2022-12-18T05:59:11;2.50;96.70
51739;DHT22;37815;52.692;6.226;2022-12-18T06:04:12;3.90;96.80
51739;DHT22;37815;52.692;6.226;2022-12-18T06:09:12;2.40;96.40
51739;DHT22;37815;52.692;6.226;2022-12-18T06:14:13;2.50;96.40
51739;DHT22;37815;52.692;6.226;2022-12-18T06:19:15;2.40;96.40
51739;DHT22;37815;52.692;6.226;2022-12-18T06:24:16;2.40;96.40
51739;DHT22;37815;52.692;6.226;2022-12-18T06:29:16;2.40;96.40
51739;DHT22;37815;52.692;6.226;2022-12-18T06:34:17;2.40;96.40
51739;DHT22;37815;52.692;6.226;2022-12-18T06:39:18;2.40;96.40
51739;DHT22;37815;52.692;6.226;2022-12-18T06:44:18;2.40;96.40
51739;DHT22;37815;52.692;6.226;2022-12-18T06:49:19;2.30;96.40
51739;DHT22;37815;52.692;6.226;2022-12-18T06:54:20;3.50;96.60
51739;DHT22;37815;52.692;6.226;2022-12-18T06:59:21;2.30;96.30
51739;DHT22;37815;52.692;6.226;2022-12-18T07:04:21;2.30;96.30
51739;DHT22;37815;52.692;6.226;2022-12-18T07:09:22;2.30;96.30
51739;DHT22;37815;52.692;6.226;2022-12-18T07:14:23;2.30;96.30
51739;DHT22;37815;52.692;6.226;2022-12-18T07:19:23;2.30;96.30
51739;DHT22;37815;52.692;6.226;2022-12-18T07:24:24;2.30;96.30
51739;DHT22;37815;52.692;6.226;2022-12-18T07:29:25;2.30;96.50
51739;DHT22;37815;52.692;6.226;2022-12-18T07:34:26;2.30;96.30
51739;DHT22;37815;52.692;6.226;2022-12-18T07:39:26;2.30;96.30
51739;DHT22;37815;52.692;6.226;2022-12-18T07:44:27;2.30;96.30
51739;DHT22;37815;52.692;6.226;2022-12-18T07:49:28;2.20;96.30
51739;DHT22;37815;52.692;6.226;2022-12-18T07:54:28;2.30;96.30
51739;DHT22;37815;52.692;6.226;2022-12-18T07:59:29;2.20;96.30
51739;DHT22;37815;52.692;6.226;2022-12-18T08:04:30;2.20;96.30
51739;DHT22;37815;52.692;6.226;2022-12-18T08:09:31;2.20;96.40
51739;DHT22;37815;52.692;6.226;2022-12-18T08:14:32;2.20;96.20
51739;DHT22;37815;52.692;6.226;2022-12-18T08:19:32;2.20;96.20
51739;DHT22;37815;52.692;6.226;2022-12-18T08:24:34;2.20;96.20
51739;DHT22;37815;52.692;6.226;2022-12-18T08:29:35;2.20;96.20
51739;DHT22;37815;52.692;6.226;2022-12-18T08:34:35;2.20;96.10
51739;DHT22;37815;52.692;6.226;2022-12-18T08:39:36;2.20;96.10
51739;DHT22;37815;52.692;6.226;2022-12-18T08:44:37;2.20;96.10
51739;DHT22;37815;52.692;6.226;2022-12-18T08:49:37;2.20;95.70
51739;DHT22;37815;52.692;6.226;2022-12-18T08:54:38;2.20;96.10
51739;DHT22;37815;52.692;6.226;2022-12-18T08:59:39;3.00;96.20
51739;DHT22;37815;52.692;6.226;2022-12-18T09:04:39;2.20;96.00
51739;DHT22;37815;52.692;6.226;2022-12-18T09:09:40;2.30;95.90
51739;DHT22;37815;52.692;6.226;2022-12-18T09:14:41;2.30;95.90
51739;DHT22;37815;52.692;6.226;2022-12-18T09:19:41;2.30;95.90
51739;DHT22;37815;52.692;6.226;2022-12-18T09:24:42;2.30;95.60
51739;DHT22;37815;52.692;6.226;2022-12-18T09:29:43;2.40;95.70
51739;DHT22;37815;52.692;6.226;2022-12-18T09:34:43;2.70;95.90
51739;DHT22;37815;52.692;6.226;2022-12-18T09:39:44;2.30;95.50
51739;DHT22;37815;52.692;6.226;2022-12-18T09:44:50;1.90;95.40
51739;DHT22;37815;52.692;6.226;2022-12-18T09:49:55;2.30;95.30
51739;DHT22;37815;52.692;6.226;2022-12-18T09:55:11;2.30;95.60
51739;DHT22;37815;52.692;6.226;2022-12-18T10:00:18;2.30;95.60
51739;DHT22;37815;52.692;6.226;2022-12-18T10:10:50;2.40;95.50
51739;DHT22;37815;52.692;6.226;2022-12-18T10:16:07;2.40;95.60
51739;DHT22;37815;52.692;6.226;2022-12-18T10:21:17;2.80;95.60
51739;DHT22;37815;52.692;6.226;2022-12-18T10:26:19;2.40;95.50
51739;DHT22;37815;52.692;6.226;2022-12-18T10:31:29;2.40;95.50
51739;DHT22;37815;52.692;6.226;2022-12-18T10:36:29;2.40;95.50
51739;DHT22;37815;52.692;6.226;2022-12-18T10:41:30;2.40;95.50
51739;DHT22;37815;52.692;6.226;2022-12-18T10:46:32;2.50;95.50
51739;DHT22;37815;52.692;6.226;2022-12-18T10:51:35;2.90;95.60
51739;DHT22;37815;52.692;6.226;2022-12-18T10:56:37;2.50;95.50
51739;DHT22;37815;52.692;6.226;2022-12-18T11:01:53;2.50;95.40
51739;DHT22;37815;52.692;6.226;2022-12-18T11:12:03;2.60;95.40
51739;DHT22;37815;52.692;6.226;2022-12-18T11:17:19;2.60;95.40
51739;DHT22;37815;52.692;6.226;2022-12-18T11:22:30;2.60;95.30
51739;DHT22;37815;52.692;6.226;2022-12-18T11:27:32;3.80;95.60
51739;DHT22;37815;52.692;6.226;2022-12-18T11:32:39;2.70;95.10
51739;DHT22;37815;52.692;6.226;2022-12-18T11:37:43;2.70;95.30
51739;DHT22;37815;52.692;6.226;2022-12-18T11:42:59;2.70;95.30
51739;DHT22;37815;52.692;6.226;2022-12-18T11:48:27;2.70;95.30
51739;DHT22;37815;52.692;6.226;2022-12-18T11:53:30;2.30;95.10
51739;DHT22;37815;52.692;6.226;2022-12-18T12:25:59;2.60;95.30
51739;DHT22;37815;52.692;6.226;2022-12-18T12:36:20;2.00;95.10
51739;DHT22;37815;52.692;6.226;2022-12-18T12:41:26;2.70;95.20
51739;DHT22;37815;52.692;6.226;2022-12-18T12:46:48;2.80;95.20
51739;DHT22;37815;52.692;6.226;2022-12-18T12:52:12;4.20;95.50
51739;DHT22;37815;52.692;6.226;2022-12-18T12:57:31;2.80;95.00
51739;DHT22;37815;52.692;6.226;2022-12-18T13:07:45;3.50;95.00
51739;DHT22;37815;52.692;6.226;2022-12-18T13:13:13;2.90;95.10
51739;DHT22;37815;52.692;6.226;2022-12-18T13:18:23;3.00;95.30
51739;DHT22;37815;52.692;6.226;2022-12-18T13:33:47;3.20;95.20
51739;DHT22;37815;52.692;6.226;2022-12-18T13:49:40;3.30;95.20
51739;DHT22;37815;52.692;6.226;2022-12-18T13:54:47;3.20;95.10
51739;DHT22;37815;52.692;6.226;2022-12-18T13:59:49;3.20;95.20
51739;DHT22;37815;52.692;6.226;2022-12-18T14:04:53;3.00;95.20
51739;DHT22;37815;52.692;6.226;2022-12-18T15:29:02;3.00;95.10
51739;DHT22;37815;52.692;6.226;2022-12-18T15:34:24;3.10;95.20
51739;DHT22;37815;52.692;6.226;2022-12-18T15:39:25;3.00;95.10
51739;DHT22;37815;52.692;6.226;2022-12-18T15:44:26;3.00;95.10
51739;DHT22;37815;52.692;6.226;2022-12-18T15:49:27;3.00;95.00
51739;DHT22;37815;52.692;6.226;2022-12-18T15:54:27;3.00;95.00
51739;DHT22;37815;52.692;6.226;2022-12-18T15:59:57;3.00;95.00
51739;DHT22;37815;52.692;6.226;2022-12-18T16:04:58;3.00;95.00
51739;DHT22;37815;52.692;6.226;2022-12-18T16:09:59;3.00;95.00
51739;DHT22;37815;52.692;6.226;2022-12-18T16:15:00;3.00;94.90
51739;DHT22;37815;52.692;6.226;2022-12-18T16:20:00;3.00;94.90
51739;DHT22;37815;52.692;6.226;2022-12-18T16:25:01;3.00;94.90
51739;DHT22;37815;52.692;6.226;2022-12-18T16:30:01;3.00;94.90
51739;DHT22;37815;52.692;6.226;2022-12-18T16:35:02;3.00;94.90
51739;DHT22;37815;52.692;6.226;2022-12-18T16:40:04;3.00;94.90
51739;DHT22;37815;52.692;6.226;2022-12-18T16:45:07;3.00;94.90
51739;DHT22;37815;52.692;6.226;2022-12-18T16:50:08;3.00;94.90
51739;DHT22;37815;52.692;6.226;2022-12-18T16:55:09;3.00;94.90
51739;DHT22;37815;52.692;6.226;2022-12-18T17:00:10;3.00;94.90
51739;DHT22;37815;52.692;6.226;2022-12-18T17:05:11;3.00;94.90
51739;DHT22;37815;52.692;6.226;2022-12-18T17:10:12;3.00;94.90
51739;DHT22;37815;52.692;6.226;2022-12-18T17:15:12;3.00;94.50
51739;DHT22;37815;52.692;6.226;2022-12-18T17:20:13;3.00;94.90
51739;DHT22;37815;52.692;6.226;2022-12-18T17:25:14;3.00;94.90
51739;DHT22;37815;52.692;6.226;2022-12-18T17:35:24;3.30;95.00
51739;DHT22;37815;52.692;6.226;2022-12-18T17:40:25;3.00;94.90
51739;DHT22;37815;52.692;6.226;2022-12-18T17:45:26;3.00;94.90
51739;DHT22;37815;52.692;6.226;2022-12-18T17:50:26;3.00;94.90
51739;DHT22;37815;52.692;6.226;2022-12-18T17:55:28;3.10;95.00
51739;DHT22;37815;52.692;6.226;2022-12-18T18:00:28;3.20;95.10
51739;DHT22;37815;52.692;6.226;2022-12-18T18:05:29;3.20;95.10
51739;DHT22;37815;52.692;6.226;2022-12-18T18:10:29;3.20;95.10
51739;DHT22;37815;52.692;6.226;2022-12-18T18:15:30;3.20;95.10
51739;DHT22;37815;52.692;6.226;2022-12-18T18:20:31;3.20;95.10
51739;DHT22;37815;52.692;6.226;2022-12-18T18:25:35;3.30;95.40
51739;DHT22;37815;52.692;6.226;2022-12-18T18:30:39;3.50;95.70
51739;DHT22;37815;52.692;6.226;2022-12-18T18:35:43;3.70;95.40
51739;DHT22;37815;52.692;6.226;2022-12-18T18:40:52;3.70;95.30
51739;DHT22;37815;52.692;6.226;2022-12-18T18:45:58;4.50;95.60
51739;DHT22;37815;52.692;6.226;2022-12-18T18:51:10;3.70;95.40
51739;DHT22;37815;52.692;6.226;2022-12-18T18:56:23;2.30;95.00
51739;DHT22;37815;52.692;6.226;2022-12-18T19:01:25;3.90;95.40
51739;DHT22;37815;52.692;6.226;2022-12-18T19:06:29;4.90;95.70
51739;DHT22;37815;52.692;6.226;2022-12-18T19:11:30;3.60;95.60
51739;DHT22;37815;52.692;6.226;2022-12-18T19:16:49;3.60;95.40
51739;DHT22;37815;52.692;6.226;2022-12-18T19:21:50;3.50;95.50
51739;DHT22;37815;52.692;6.226;2022-12-18T19:26:51;3.60;95.40
51739;DHT22;37815;52.692;6.226;2022-12-18T19:31:51;3.60;95.40
51739;DHT22;37815;52.692;6.226;2022-12-18T19:36:52;3.50;95.40
51739;DHT22;37815;52.692;6.226;2022-12-18T19:41:52;3.50;95.40
51739;DHT22;37815;52.692;6.226;2022-12-18T19:47:05;4.00;95.50
51739;DHT22;37815;52.692;6.226;2022-12-18T19:52:11;4.80;95.70
51739;DHT22;37815;52.692;6.226;2022-12-18T19:57:13;3.50;95.30
51739;DHT22;37815;52.692;6.226;2022-12-18T20:02:14;3.50;95.30
51739;DHT22;37815;52.692;6.226;2022-12-18T20:07:15;3.50;95.30
51739;DHT22;37815;52.692;6.226;2022-12-18T20:12:28;4.90;96.00
51739;DHT22;37815;52.692;6.226;2022-12-18T20:17:28;3.60;95.30
51739;DHT22;37815;52.692;6.226;2022-12-18T20:22:47;3.50;95.30
51739;DHT22;37815;52.692;6.226;2022-12-18T20:27:47;3.50;95.30
51739;DHT22;37815;52.692;6.226;2022-12-18T20:32:57;3.50;95.30
51739;DHT22;37815;52.692;6.226;2022-12-18T20:38:33;3.50;95.30
51739;DHT22;37815;52.692;6.226;2022-12-18T20:43:59;3.90;95.20
51739;DHT22;37815;52.692;6.226;2022-12-18T20:49:40;3.50;95.20
51739;DHT22;37815;52.692;6.226;2022-12-18T20:54:52;3.50;95.30
51739;DHT22;37815;52.692;6.226;2022-12-18T21:05:44;2.60;95.10
51739;DHT22;37815;52.692;6.226;2022-12-18T21:10:44;3.60;96.20
51739;DHT22;37815;52.692;6.226;2022-12-18T21:15:45;3.80;96.50
51739;DHT22;37815;52.692;6.226;2022-12-18T21:20:45;3.80;95.90
51739;DHT22;37815;52.692;6.226;2022-12-18T21:25:46;3.80;95.80
51739;DHT22;37815;52.692;6.226;2022-12-18T21:30:47;3.80;95.80
51739;DHT22;37815;52.692;6.226;2022-12-18T21:35:48;3.70;96.10
51739;DHT22;37815;52.692;6.226;2022-12-18T21:40:48;3.70;95.80
51739;DHT22;37815;52.692;6.226;2022-12-18T21:45:49;3.70;95.80
51739;DHT22;37815;52.692;6.226;2022-12-18T21:50:50;3.70;95.80
51739;DHT22;37815;52.692;6.226;2022-12-18T21:55:59;3.60;95.80
51739;DHT22;37815;52.692;6.226;2022-12-18T22:01:00;3.60;95.80
51739;DHT22;37815;52.692;6.226;2022-12-18T22:06:00;3.60;95.80
51739;DHT22;37815;52.692;6.226;2022-12-18T22:11:01;3.60;95.80
51739;DHT22;37815;52.692;6.226;2022-12-18T22:16:02;3.60;95.80
51739;DHT22;37815;52.692;6.226;2022-12-18T22:21:03;3.60;95.80
51739;DHT22;37815;52.692;6.226;2022-12-18T22:26:04;3.00;95.70
51739;DHT22;37815;52.692;6.226;2022-12-18T22:31:05;3.60;95.80
51739;DHT22;37815;52.692;6.226;2022-12-18T22:36:06;3.60;95.80
51739;DHT22;37815;52.692;6.226;2022-12-18T22:41:07;3.50;95.80
51739;DHT22;37815;52.692;6.226;2022-12-18T22:46:13;3.60;95.80
51739;DHT22;37815;52.692;6.226;2022-12-18T22:51:16;3.60;95.80
51739;DHT22;37815;52.692;6.226;2022-12-18T22:56:17;3.50;95.80
51739;DHT22;37815;52.692;6.226;2022-12-18T23:01:22;3.50;95.80
51739;DHT22;37815;52.692;6.226;2022-12-18T23:06:25;3.60;95.80
51739;DHT22;37815;52.692;6.226;2022-12-18T23:11:25;3.60;95.80
51739;DHT22;37815;52.692;6.226;2022-12-18T23:16:27;3.60;95.80
51739;DHT22;37815;52.692;6.226;2022-12-18T23:21:27;3.60;96.10
51739;DHT22;37815;52.692;6.226;2022-12-18T23:26:28;3.60;96.10
51739;DHT22;37815;52.692;6.226;2022-12-18T23:31:35;3.60;95.80
51739;DHT22;37815;52.692;6.226;2022-12-18T23:36:36;3.60;95.90
51739;DHT22;37815;52.692;6.226;2022-12-18T23:41:36;3.60;95.80
51739;DHT22;37815;52.692;6.226;2022-12-18T23:46:37;3.60;95.90
51739;DHT22;37815;52.692;6.226;2022-12-18T23:51:38;3.60;95.90
51739;DHT22;37815;52.692;6.226;2022-12-18T23:56:38;3.60;95.90
